createdAt,value
2022-12-22T00:01:48.128Z,86.41
2022-12-22T00:04:38.066Z,84.43
2022-12-22T00:07:25.224Z,83.07
2022-12-22T00:10:14.026Z,81.55
2022-12-22T00:13:01.529Z,80.96
2022-12-22T00:15:50.567Z,87.46
2022-12-22T00:18:37.950Z,87.09
2022-12-22T00:21:25.375Z,90.31
2022-12-22T00:24:12.876Z,85.32
2022-12-22T00:27:02.522Z,88.22
2022-12-22T00:29:54.901Z,85.75
2022-12-22T00:32:42.568Z,90.45
2022-12-22T00:35:33.226Z,83.20
2022-12-22T00:38:20.356Z,91.41
2022-12-22T00:41:07.887Z,88.46
2022-12-22T00:43:56.236Z,88.50
2022-12-22T00:46:43.017Z,87.68
2022-12-22T00:49:30.691Z,86.90
2022-12-22T00:52:20.042Z,88.76
2022-12-22T00:55:07.551Z,86.11
2022-12-22T00:57:55.661Z,83.35
2022-12-22T01:00:45.317Z,82.75
2022-12-22T01:03:32.907Z,84.34
2022-12-22T01:06:21.893Z,85.11
2022-12-22T01:09:10.022Z,82.36
2022-12-22T01:11:58.031Z,81.69
2022-12-22T01:14:46.041Z,82.69
2022-12-22T01:17:34.391Z,85.81
2022-12-22T01:20:21.948Z,87.93
2022-12-22T01:23:09.462Z,84.55
2022-12-22T01:25:56.899Z,89.62
2022-12-22T01:28:44.547Z,92.62
2022-12-22T01:31:37.419Z,87.42
2022-12-22T01:34:27.086Z,90.00
2022-12-22T01:37:14.234Z,89.59
2022-12-22T01:40:01.755Z,95.50
2022-12-22T01:42:52.472Z,89.16
2022-12-22T01:45:42.659Z,88.65
2022-12-22T01:48:34.800Z,91.61
2022-12-22T01:51:29.645Z,86.80
2022-12-22T01:54:17.968Z,87.55
2022-12-22T01:57:05.945Z,82.77
2022-12-22T01:59:53.871Z,91.61
2022-12-22T02:02:42.006Z,89.51
2022-12-22T02:05:30.880Z,93.31
2022-12-22T02:08:26.472Z,92.79
2022-12-22T02:11:34.810Z,90.18
2022-12-22T02:14:33.361Z,85.21
2022-12-22T02:17:26.388Z,88.16
2022-12-22T02:20:41.499Z,85.07
2022-12-22T02:23:43.962Z,85.05
2022-12-22T02:26:53.685Z,82.23
2022-12-22T02:29:45.459Z,86.27
2022-12-22T02:32:33.491Z,82.59
2022-12-22T02:35:28.961Z,81.43
2022-12-22T02:38:21.342Z,84.36
2022-12-22T02:41:16.911Z,82.74
2022-12-22T02:44:20.748Z,82.49
2022-12-22T02:47:14.809Z,82.66
2022-12-22T02:50:10.531Z,82.71
2022-12-22T02:53:00.447Z,82.42
2022-12-22T02:55:48.586Z,82.08
2022-12-22T02:58:36.445Z,83.30
2022-12-22T03:01:26.048Z,82.98
2022-12-22T03:04:13.590Z,83.86
2022-12-22T03:07:00.803Z,84.72
2022-12-22T03:09:47.899Z,83.43
2022-12-22T03:12:34.940Z,84.20
2022-12-22T03:15:22.217Z,82.89
2022-12-22T03:18:10.685Z,80.68
2022-12-22T03:20:58.147Z,81.30
2022-12-22T03:23:45.475Z,83.12
2022-12-22T03:26:15.726Z,81.85
2022-12-22T03:28:45.828Z,81.44
2022-12-22T03:31:15.918Z,85.78
2022-12-22T03:33:47.659Z,83.90
2022-12-22T03:36:18.106Z,84.40
2022-12-22T03:38:48.035Z,84.49
2022-12-22T03:41:31.770Z,84.38
2022-12-22T03:44:18.844Z,83.42
2022-12-22T03:46:48.975Z,82.07
2022-12-22T03:49:22.798Z,85.71
2022-12-22T03:51:54.832Z,86.16
2022-12-22T03:54:33.322Z,83.54
2022-12-22T03:57:03.199Z,85.45
2022-12-22T03:59:33.121Z,84.52
2022-12-22T04:02:03.323Z,82.15
2022-12-22T04:04:35.864Z,83.17
2022-12-22T04:07:07.023Z,82.31
2022-12-22T04:09:56.678Z,80.83
2022-12-22T04:12:43.948Z,86.03
2022-12-22T04:15:13.766Z,90.35
2022-12-22T04:17:43.887Z,89.91
2022-12-22T04:20:16.254Z,88.53
2022-12-22T04:22:46.641Z,89.79
2022-12-22T04:25:17.478Z,91.99
2022-12-22T04:27:47.943Z,89.94
2022-12-22T04:30:18.005Z,85.42
2022-12-22T04:32:48.113Z,84.37
2022-12-22T04:35:19.244Z,85.21
2022-12-22T04:37:49.089Z,84.08
2022-12-22T04:40:19.365Z,84.51
2022-12-22T04:42:49.778Z,83.03
2022-12-22T04:45:19.704Z,83.50
2022-12-22T04:47:49.648Z,83.74
2022-12-22T04:50:21.784Z,83.83
2022-12-22T04:52:51.643Z,83.65
2022-12-22T04:55:23.864Z,83.90
2022-12-22T04:57:54.453Z,86.82
2022-12-22T05:00:24.342Z,86.58
2022-12-22T05:02:55.827Z,83.67
2022-12-22T05:05:27.269Z,83.86
2022-12-22T05:07:57.934Z,85.71
2022-12-22T05:10:27.698Z,85.27
2022-12-22T05:12:59.044Z,83.75
2022-12-22T05:15:31.144Z,86.26
2022-12-22T05:18:02.010Z,84.98
2022-12-22T05:20:34.028Z,85.53
2022-12-22T05:23:04.340Z,84.41
2022-12-22T05:25:38.048Z,84.73
2022-12-22T05:28:09.973Z,84.05
2022-12-22T05:30:42.778Z,84.04
2022-12-22T05:33:12.889Z,83.59
2022-12-22T05:35:44.325Z,84.90
2022-12-22T05:38:14.470Z,83.55
2022-12-22T05:40:44.547Z,82.99
2022-12-22T05:43:15.130Z,82.96
2022-12-22T05:45:48.176Z,85.37
2022-12-22T05:48:24.236Z,85.75
2022-12-22T05:51:00.030Z,84.30
2022-12-22T05:53:30.325Z,81.18
2022-12-22T05:56:04.297Z,83.47
2022-12-22T05:58:41.089Z,81.04
2022-12-22T06:01:11.180Z,81.94
2022-12-22T06:03:42.268Z,82.97
2022-12-22T06:06:14.544Z,81.15
2022-12-22T06:08:44.236Z,81.10
2022-12-22T06:11:18.369Z,79.95
2022-12-22T06:13:49.182Z,83.31
2022-12-22T06:16:19.163Z,81.81
2022-12-22T06:18:49.485Z,79.89
2022-12-22T06:21:20.810Z,82.62
2022-12-22T06:23:51.595Z,82.02
2022-12-22T06:26:22.613Z,81.43
2022-12-22T06:28:56.898Z,81.13
2022-12-22T06:31:28.237Z,82.33
2022-12-22T06:33:58.611Z,82.49
2022-12-22T06:36:30.038Z,82.11
2022-12-22T06:38:59.836Z,80.96
2022-12-22T06:41:47.064Z,81.89
2022-12-22T06:44:16.480Z,81.46
2022-12-22T06:46:46.667Z,78.25
2022-12-22T06:49:16.558Z,77.83
2022-12-22T06:51:48.029Z,80.32
2022-12-22T06:54:22.365Z,78.79
2022-12-22T06:56:59.518Z,79.33
2022-12-22T06:59:29.496Z,80.34
2022-12-22T07:01:59.810Z,78.78
2022-12-22T07:04:31.447Z,79.25
2022-12-22T07:07:03.814Z,79.66
2022-12-22T07:09:36.364Z,79.98
2022-12-22T07:12:06.926Z,80.78
2022-12-22T07:14:36.954Z,79.26
2022-12-22T07:17:07.278Z,83.59
2022-12-22T07:19:37.134Z,82.05
2022-12-22T07:22:08.834Z,83.24
2022-12-22T07:24:38.558Z,79.33
2022-12-22T07:27:11.289Z,81.33
2022-12-22T07:29:42.313Z,80.05
2022-12-22T07:32:12.475Z,82.42
2022-12-22T07:34:42.782Z,81.18
2022-12-22T07:37:14.041Z,82.85
2022-12-22T07:39:44.561Z,81.88
2022-12-22T07:42:32.318Z,80.05
2022-12-22T07:45:02.127Z,80.34
2022-12-22T07:47:35.483Z,80.14
2022-12-22T07:50:23.918Z,81.64
2022-12-22T07:52:56.408Z,79.24
2022-12-22T07:55:28.504Z,80.81
2022-12-22T07:57:59.057Z,79.76
2022-12-22T08:00:29.091Z,81.07
2022-12-22T08:03:02.110Z,78.78
2022-12-22T08:05:32.480Z,79.68
2022-12-22T08:08:03.665Z,82.91
2022-12-22T08:10:34.093Z,80.66
2022-12-22T08:13:03.937Z,81.77
2022-12-22T08:15:34.153Z,80.52
2022-12-22T08:18:04.599Z,80.88
2022-12-22T08:20:34.079Z,80.66
2022-12-22T08:23:05.624Z,82.47
2022-12-22T08:25:36.814Z,83.19
2022-12-22T08:28:11.905Z,81.83
2022-12-22T08:30:41.807Z,83.15
2022-12-22T08:33:12.354Z,83.70
2022-12-22T08:35:42.785Z,85.31
2022-12-22T08:38:15.848Z,83.40
2022-12-22T08:40:46.109Z,84.06
2022-12-22T08:43:16.306Z,82.19
2022-12-22T08:45:46.460Z,86.22
2022-12-22T08:48:16.400Z,89.82
2022-12-22T08:50:46.706Z,88.39
2022-12-22T08:53:45.160Z,85.52
2022-12-22T08:56:09.077Z,85.10
2022-12-22T08:58:40.353Z,84.32
2022-12-22T09:01:10.731Z,88.93
2022-12-22T09:03:40.801Z,87.44
2022-12-22T09:06:10.424Z,89.23
2022-12-22T09:08:41.552Z,86.92
2022-12-22T09:11:12.139Z,85.13
2022-12-22T09:13:42.927Z,83.14
2022-12-22T09:16:13.623Z,83.48
2022-12-22T09:18:43.702Z,83.24
2022-12-22T09:21:14.643Z,81.98
2022-12-22T09:23:45.618Z,83.12
2022-12-22T09:26:18.170Z,82.82
2022-12-22T09:28:56.930Z,84.73
2022-12-22T09:31:29.874Z,84.15
2022-12-22T09:34:01.281Z,86.61
2022-12-22T09:36:34.165Z,88.12
2022-12-22T09:39:09.310Z,85.17
2022-12-22T09:41:43.897Z,83.76
2022-12-22T09:44:18.550Z,82.79
2022-12-22T09:46:49.224Z,83.24
2022-12-22T09:49:22.886Z,83.37
2022-12-22T09:51:56.219Z,83.67
2022-12-22T09:54:27.556Z,85.35
2022-12-22T09:56:58.770Z,85.02
2022-12-22T09:59:30.767Z,90.71
2022-12-22T10:02:22.442Z,86.31
2022-12-22T10:05:12.693Z,83.09
2022-12-22T10:07:43.937Z,84.58
2022-12-22T10:10:25.590Z,83.45
2022-12-22T10:12:57.913Z,84.82
2022-12-22T10:15:29.557Z,87.24
2022-12-22T10:18:12.144Z,84.79
2022-12-22T10:20:42.445Z,85.25
2022-12-22T10:23:19.827Z,84.95
2022-12-22T10:28:59.818Z,85.70
2022-12-22T10:31:31.317Z,84.13
2022-12-22T10:34:14.201Z,85.64
2022-12-22T10:36:48.786Z,87.46
2022-12-22T10:39:26.096Z,84.46
2022-12-22T10:42:01.733Z,84.36
2022-12-22T10:44:35.222Z,86.86
2022-12-22T10:47:17.993Z,84.51
2022-12-22T10:52:29.541Z,86.64
2022-12-22T10:55:16.397Z,84.56
2022-12-22T10:57:48.144Z,85.00
2022-12-22T11:00:28.230Z,83.97
2022-12-22T11:03:03.288Z,85.60
2022-12-22T11:05:34.614Z,83.32
2022-12-22T11:08:18.623Z,86.87
2022-12-22T11:10:54.509Z,84.01
2022-12-22T11:13:54.851Z,86.48
2022-12-22T11:16:30.921Z,88.23
2022-12-22T11:19:11.473Z,88.05
2022-12-22T11:21:47.217Z,88.15
2022-12-22T11:24:28.237Z,88.32
2022-12-22T11:27:04.072Z,84.50
2022-12-22T11:30:05.151Z,88.35
2022-12-22T11:32:58.270Z,91.44
2022-12-22T11:35:39.973Z,87.00
2022-12-22T11:38:16.801Z,88.25
2022-12-22T11:40:49.540Z,89.05
2022-12-22T11:43:27.095Z,86.49
2022-12-22T11:49:15.243Z,80.43
2022-12-22T11:52:05.218Z,82.65
2022-12-22T11:55:01.332Z,83.93
2022-12-22T11:57:36.777Z,86.41
2022-12-22T12:00:12.415Z,87.24
2022-12-22T12:03:24.999Z,86.07
2022-12-22T12:06:22.186Z,88.43
2022-12-22T12:09:07.055Z,88.15
2022-12-22T12:11:43.944Z,87.76
2022-12-22T12:14:22.173Z,87.43
2022-12-22T12:16:57.911Z,87.19
2022-12-22T12:19:47.832Z,87.91
2022-12-22T12:22:31.122Z,85.73
2022-12-22T12:25:11.955Z,84.32
2022-12-22T12:27:54.410Z,85.90
2022-12-22T12:30:38.065Z,87.64
2022-12-22T12:33:15.682Z,86.15
2022-12-22T12:35:54.568Z,86.63
2022-12-22T12:41:27.843Z,87.59
2022-12-22T12:43:58.306Z,83.38
2022-12-22T12:46:56.894Z,85.14
2022-12-22T12:50:09.712Z,86.70
2022-12-22T12:53:16.771Z,86.52
2022-12-22T12:56:12.391Z,85.74
2022-12-22T12:58:58.383Z,87.41
2022-12-22T13:02:00.044Z,87.69
2022-12-22T13:05:16.334Z,85.14
2022-12-22T13:08:22.553Z,87.68
2022-12-22T13:12:01.293Z,86.11
2022-12-22T13:14:55.928Z,87.06
2022-12-22T13:17:41.006Z,85.87
2022-12-22T13:20:17.646Z,86.44
2022-12-22T13:22:48.834Z,87.16
2022-12-22T13:25:19.519Z,85.39
2022-12-22T13:27:50.943Z,86.21
2022-12-22T13:30:23.942Z,85.12
2022-12-22T13:32:54.910Z,85.53
2022-12-22T13:35:32.005Z,85.42
2022-12-22T13:38:04.159Z,84.33
2022-12-22T13:40:40.919Z,87.06
2022-12-22T13:43:14.958Z,86.46
2022-12-22T13:45:47.758Z,85.92
2022-12-22T13:48:21.065Z,85.93
2022-12-22T13:50:53.190Z,87.19
2022-12-22T13:56:23.447Z,85.73
2022-12-22T13:58:57.710Z,86.06
2022-12-22T14:01:29.490Z,87.55
2022-12-22T14:04:04.582Z,87.71
2022-12-22T14:06:37.797Z,87.44
2022-12-22T14:09:17.303Z,87.53
2022-12-22T14:11:52.396Z,86.29
2022-12-22T14:14:27.263Z,87.71
2022-12-22T14:17:01.008Z,87.22
2022-12-22T14:19:34.232Z,87.04
2022-12-22T14:22:08.551Z,86.56
2022-12-22T14:24:43.579Z,87.42
2022-12-22T14:27:21.482Z,86.34
2022-12-22T14:29:52.442Z,85.36
2022-12-22T14:32:55.259Z,85.94
2022-12-22T14:35:32.097Z,86.95
2022-12-22T14:38:21.455Z,87.94
2022-12-22T14:40:56.871Z,89.10
2022-12-22T14:43:30.915Z,92.34
2022-12-22T14:46:07.849Z,91.71
2022-12-22T14:48:42.251Z,90.17
2022-12-22T14:51:12.039Z,93.59
2022-12-22T14:53:48.057Z,94.26
2022-12-22T14:56:19.730Z,94.74
2022-12-22T14:58:50.614Z,94.81
2022-12-22T15:01:25.742Z,96.81
2022-12-22T15:04:10.394Z,97.45
2022-12-22T15:06:44.211Z,98.71
2022-12-22T15:12:22.026Z,99.65
2022-12-22T15:14:52.515Z,98.23
2022-12-22T15:17:25.973Z,97.08
2022-12-22T15:19:59.981Z,98.74
2022-12-22T15:22:31.423Z,97.01
2022-12-22T15:25:01.389Z,96.02
2022-12-22T15:27:31.649Z,98.87
2022-12-22T15:30:01.652Z,97.44
2022-12-22T15:32:37.730Z,97.32
2022-12-22T15:35:21.233Z,98.16
2022-12-22T15:37:51.754Z,99.25
2022-12-22T15:40:23.510Z,100.00
2022-12-22T15:42:53.885Z,99.87
2022-12-22T15:45:24.979Z,99.18
2022-12-22T15:47:56.174Z,100.00
2022-12-22T15:50:38.493Z,98.90
2022-12-22T15:53:11.288Z,96.45
2022-12-22T15:55:44.399Z,100.00
2022-12-22T15:58:16.929Z,98.83
2022-12-22T16:00:47.617Z,98.65
2022-12-22T16:03:17.924Z,96.17
2022-12-22T16:05:50.388Z,99.87
2022-12-22T16:08:24.633Z,96.13
2022-12-22T16:10:55.051Z,97.15
2022-12-22T16:13:28.843Z,98.23
2022-12-22T16:15:59.323Z,95.87
2022-12-22T16:18:29.314Z,94.54
2022-12-22T16:21:02.807Z,96.57
2022-12-22T16:23:32.728Z,96.91
2022-12-22T16:26:03.615Z,95.95
2022-12-22T16:28:34.369Z,97.91
2022-12-22T16:31:04.609Z,99.06
2022-12-22T16:33:36.626Z,97.74
2022-12-22T16:36:11.425Z,97.88
2022-12-22T16:38:42.787Z,98.48
2022-12-22T16:41:22.453Z,97.47
2022-12-22T16:46:41.572Z,98.64
2022-12-22T16:49:18.149Z,97.61
2022-12-22T16:51:55.361Z,100.00
2022-12-22T16:54:25.406Z,98.15
2022-12-22T16:56:55.207Z,96.16
2022-12-22T16:59:25.937Z,96.39
2022-12-22T17:01:57.810Z,96.03
2022-12-22T17:04:32.580Z,94.78
2022-12-22T17:07:04.881Z,96.84
2022-12-22T17:09:40.938Z,94.69
2022-12-22T17:12:14.706Z,96.20
2022-12-22T17:14:45.183Z,96.75
2022-12-22T17:17:21.120Z,96.00
2022-12-22T17:19:54.903Z,98.30
2022-12-22T17:22:29.164Z,100.00
2022-12-22T17:25:02.765Z,96.44
2022-12-22T17:27:33.795Z,97.50
2022-12-22T17:30:05.599Z,99.36
2022-12-22T17:32:35.545Z,95.74
2022-12-22T17:35:05.642Z,96.44
2022-12-22T17:37:36.911Z,94.98
2022-12-22T17:40:08.707Z,94.49
2022-12-22T17:42:38.874Z,96.61
2022-12-22T17:45:15.942Z,100.00
2022-12-22T17:47:47.911Z,97.51
2022-12-22T17:50:20.692Z,98.45
2022-12-22T17:52:53.069Z,94.68
2022-12-22T17:56:01.351Z,94.87
2022-12-22T17:58:15.805Z,94.23
2022-12-22T18:00:46.849Z,96.98
2022-12-22T18:03:17.588Z,95.78
2022-12-22T18:05:50.598Z,95.79
2022-12-22T18:08:24.146Z,94.66
2022-12-22T18:10:55.763Z,98.42
2022-12-22T18:13:26.785Z,94.60
2022-12-22T18:15:57.795Z,94.19
2022-12-22T18:18:27.700Z,96.43
2022-12-22T18:21:06.151Z,95.03
2022-12-22T18:23:43.117Z,94.52
2022-12-22T18:26:22.869Z,93.04
2022-12-22T18:28:54.305Z,92.35
2022-12-22T18:31:25.345Z,91.98
2022-12-22T18:33:56.006Z,92.79
2022-12-22T18:36:31.010Z,93.76
2022-12-22T18:39:05.613Z,93.73
2022-12-22T18:41:37.400Z,91.13
2022-12-22T18:44:08.460Z,95.68
2022-12-22T18:46:38.880Z,94.01
2022-12-22T18:49:09.624Z,93.79
2022-12-22T18:51:39.934Z,95.34
2022-12-22T18:54:23.532Z,95.97
2022-12-22T18:56:53.755Z,97.27
2022-12-22T18:59:28.494Z,97.73
2022-12-22T19:02:03.021Z,93.28
2022-12-22T19:04:33.483Z,92.16
2022-12-22T19:07:03.009Z,97.37
2022-12-22T19:09:34.166Z,94.39
2022-12-22T19:12:08.107Z,99.17
2022-12-22T19:14:38.770Z,96.02
2022-12-22T19:17:15.006Z,95.94
2022-12-22T19:19:45.430Z,93.81
2022-12-22T19:22:16.438Z,91.75
2022-12-22T19:24:47.650Z,96.77
2022-12-22T19:27:19.883Z,93.68
2022-12-22T19:29:50.048Z,92.93
2022-12-22T19:32:25.896Z,96.70
2022-12-22T19:34:56.138Z,94.49
2022-12-22T19:37:26.072Z,91.39
2022-12-22T19:39:59.034Z,91.67
2022-12-22T19:42:29.700Z,95.52
2022-12-22T19:45:04.002Z,92.56
2022-12-22T19:47:37.299Z,93.91
2022-12-22T19:50:11.819Z,95.73
2022-12-22T19:52:41.984Z,93.37
2022-12-22T19:55:14.564Z,92.82
2022-12-22T19:57:45.828Z,91.22
2022-12-22T20:00:18.676Z,93.75
2022-12-22T20:02:51.281Z,93.20
2022-12-22T20:05:38.541Z,93.35
2022-12-22T20:08:08.999Z,92.35
2022-12-22T20:10:42.425Z,87.82
2022-12-22T20:13:18.003Z,91.97
2022-12-22T20:15:48.103Z,89.72
2022-12-22T20:18:22.675Z,95.41
2022-12-22T20:20:58.417Z,91.00
2022-12-22T20:23:29.481Z,93.93
2022-12-22T20:26:03.390Z,91.61
2022-12-22T20:28:35.136Z,92.78
2022-12-22T20:31:05.983Z,90.20
2022-12-22T20:33:37.813Z,92.86
2022-12-22T20:36:17.533Z,92.26
2022-12-22T20:38:48.258Z,92.65
2022-12-22T20:41:19.691Z,92.73
2022-12-22T20:43:49.470Z,92.22
2022-12-22T20:46:22.122Z,94.10
2022-12-22T20:48:56.401Z,95.45
2022-12-22T20:51:29.727Z,92.84
2022-12-22T20:54:00.235Z,90.71
2022-12-22T20:56:34.326Z,92.65
2022-12-22T20:59:14.117Z,91.87
2022-12-22T21:01:45.028Z,90.11
2022-12-22T21:04:16.017Z,89.21
2022-12-22T21:06:49.590Z,90.17
2022-12-22T21:09:20.055Z,89.55
2022-12-22T21:11:53.088Z,93.11
2022-12-22T21:14:26.643Z,93.25
2022-12-22T21:16:57.144Z,91.85
2022-12-22T21:19:27.021Z,88.79
2022-12-22T21:21:57.594Z,90.46
2022-12-22T21:24:27.579Z,94.60
2022-12-22T21:26:58.971Z,93.51
2022-12-22T21:29:30.370Z,91.19
2022-12-22T21:32:00.777Z,93.17
2022-12-22T21:34:30.814Z,94.17
2022-12-22T21:37:03.594Z,96.26
2022-12-22T21:39:39.430Z,96.30
2022-12-22T21:42:12.715Z,93.70
2022-12-22T21:44:42.867Z,93.61
2022-12-22T21:47:14.050Z,93.71
2022-12-22T21:49:44.527Z,91.69
2022-12-22T21:52:15.056Z,92.93
2022-12-22T21:54:45.735Z,92.66
2022-12-22T21:57:18.224Z,92.86
2022-12-22T21:59:47.879Z,96.67
2022-12-22T22:02:19.151Z,97.71
2022-12-22T22:04:54.601Z,93.39
2022-12-22T22:07:25.171Z,91.86
2022-12-22T22:09:55.592Z,95.10
2022-12-22T22:12:37.644Z,94.64
2022-12-22T22:15:08.690Z,99.63
2022-12-22T22:17:39.937Z,95.20
2022-12-22T22:20:12.333Z,94.19
2022-12-22T22:22:43.330Z,93.56
2022-12-22T22:25:14.739Z,94.06
2022-12-22T22:27:48.043Z,95.73
2022-12-22T22:30:21.605Z,95.24
2022-12-22T22:32:52.480Z,95.34
2022-12-22T22:35:24.678Z,93.93
2022-12-22T22:37:55.617Z,92.87
2022-12-22T22:40:26.844Z,92.29
2022-12-22T22:42:58.710Z,93.50
2022-12-22T22:45:28.936Z,89.70
2022-12-22T22:47:59.156Z,96.15
2022-12-22T22:50:30.042Z,94.22
2022-12-22T22:53:00.348Z,93.42
2022-12-22T22:55:30.194Z,92.99
2022-12-22T22:58:01.930Z,92.17
2022-12-22T23:00:32.981Z,93.61
2022-12-22T23:03:03.642Z,93.00
2022-12-22T23:05:33.964Z,91.13
2022-12-22T23:08:04.530Z,95.13
2022-12-22T23:10:41.430Z,93.08
2022-12-22T23:13:13.926Z,92.56
2022-12-22T23:15:44.312Z,95.02
2022-12-22T23:18:15.195Z,92.49
2022-12-22T23:20:47.177Z,91.43
2022-12-22T23:23:17.197Z,92.94
2022-12-22T23:25:48.521Z,91.99
2022-12-22T23:28:19.979Z,91.27
2022-12-22T23:30:52.464Z,90.57
2022-12-22T23:33:23.577Z,89.08
2022-12-22T23:35:54.616Z,93.92
2022-12-22T23:38:25.024Z,92.67
2022-12-22T23:40:55.168Z,97.83
2022-12-22T23:43:27.315Z,94.64
2022-12-22T23:45:57.070Z,90.60
2022-12-22T23:48:27.454Z,94.09
2022-12-22T23:50:57.649Z,95.09
2022-12-22T23:53:27.319Z,95.72
2022-12-22T23:55:57.882Z,100.00
2022-12-22T23:58:30.453Z,100.00
